Airfield :
LOGIN :

Register | Disclaimer

   EN    FR    IT 

 










Legend :    VFR   Marginal VFR   IFR   Intensive IFR   Very Intensive IFR
Visi :
Ceiling :
>= 8 km
>= 3000ft
5 to 8 km
1000 to 3000 ft
1500m to 5 km
500 to 1000 ft
800 to 1500m
200 to 500 ft
< 800m
< 200 ft
Symbols :   Thunderstorms  Fog  Heavy snow  Heavy precipitations  Wind > 20 kt
SIGMETs :     Misc.  Thunderstorms  Icing  Turbulence  Mountain Waves  Volcanic Ashes






- Airport Elevation : 204 ft
- IATA code : AGF


LFBA - Agen

CURRENT METAR :
  • 131800Z AUTO 36005KT 320V040 CAVOK 31/13 Q1018 NOSIG

EXPIRED METARs :
  • 131730Z AUTO 35007KT CAVOK 32/14 Q1018 NOSIG
  • 131700Z AUTO 36007KT 320V020 CAVOK 32/14 Q1018 NOSIG
  • 131630Z AUTO 02006KT 350V070 CAVOK 32/15 Q1018 NOSIG
  • 131600Z AUTO 32005KT 270V360 CAVOK 32/16 Q1019 NOSIG
  • 131530Z AUTO 01007KT 330V050 CAVOK 32/16 Q1019 NOSIG

TAF TAF LFBA
Valid from the 13 at 15:00 until the 14 at 00:00 UTC


131400Z 1315/1324 32006KT CAVOK
BECMG 1318/1320 VRB02KT



MET'MAP, your aeronautical weather chart ! - Copyright ORBIFLY December 2007 - Disclaimer

ORBIFLY MET'MAP TEAM :

Programming & Development : Alexandra Zaïnal
Concept & original design : Baudouin d'Aumeries
Assistance for programming : Marc-Olivier Méhu
Technical & hardware support : Manuel Goepfert

Contact : metmap@orbifly.com




SOURCES & CREDITS :

   NOAA